Time;durP1;ratioP1;P1;durP2;ratioP2;P2;SDS_P1;SDS_P2;PMS_P1;PMS_P2;Temp;Humidity;BMP_temperature;BMP_pressure;BME280_temperature;BME280_humidity;BME280_pressure;Samples;Min_cycle;Max_cycle;Signal;HPM_P1;HPM_P2
2022/04/20 00:00:02;;;;;;;2.30;2.10;;;14.80;38.10;;;-142.21;41.20;112049.66;5056341;28;20814;-78
2022/04/20 00:02:29;;;;;;;2.20;2.00;;;14.70;38.30;;;-142.21;40.73;112049.66;5070738;28;20482;-77
2022/04/20 00:04:58;;;;;;;2.10;1.73;;;14.70;38.00;;;-142.21;40.44;112049.66;5075637;28;20518;-78
2022/04/20 00:07:26;;;;;;;2.40;2.07;;;14.60;38.70;;;-142.21;39.32;112049.66;5074696;28;21003;-78
2022/04/20 00:09:53;;;;;;;2.97;1.80;;;14.60;38.20;;;-142.21;39.58;112049.66;5075839;28;20462;-79
2022/04/20 00:12:20;;;;;;;2.60;1.93;;;14.60;38.20;;;-142.21;39.47;112049.66;5075410;28;20453;-77
2022/04/20 00:14:47;;;;;;;2.47;2.00;;;14.60;38.40;;;-142.21;39.16;112049.66;5076086;28;20443;-79
2022/04/20 00:17:14;;;;;;;2.43;2.00;;;14.60;39.00;;;-142.21;39.42;112049.66;5075791;28;20481;-78
2022/04/20 00:19:42;;;;;;;2.10;1.53;;;14.60;38.30;;;-142.21;38.20;112049.66;5058011;28;20531;-76
2022/04/20 00:22:10;;;;;;;3.50;1.90;;;14.60;37.60;;;-142.21;39.21;112049.66;5055652;28;20538;-79
2022/04/20 00:24:37;;;;;;;2.20;2.00;;;14.80;37.40;;;-142.21;40.63;112049.66;5055270;28;20529;-76
2022/04/20 00:27:05;;;;;;;2.13;1.60;;;14.80;38.30;;;-142.21;40.05;112049.66;5071111;28;20522;-78
2022/04/20 00:29:33;;;;;;;3.50;2.37;;;14.80;38.10;;;-142.21;40.33;112049.66;5074625;28;20463;-76
2022/04/20 00:32:00;;;;;;;2.73;2.10;;;14.80;38.00;;;-142.21;40.85;112049.66;5040577;28;20497;-75
2022/04/20 00:34:27;;;;;;;2.10;2.00;;;14.70;37.90;;;-142.21;39.44;112049.66;5099211;28;20443;-76
2022/04/20 00:36:55;;;;;;;2.47;1.90;;;14.60;38.10;;;-142.21;39.08;112049.66;5089578;28;20451;-77
2022/04/20 00:39:23;;;;;;;2.27;1.90;;;14.60;37.70;;;-142.21;38.75;112049.66;5075399;28;20481;-77
2022/04/20 00:41:52;;;;;;;2.10;1.70;;;14.60;38.00;;;-142.21;38.44;112049.66;5074993;28;20447;-77
2022/04/20 00:44:21;;;;;;;2.47;2.13;;;14.50;37.60;;;-142.21;40.10;112049.66;5075234;28;20534;-78
2022/04/20 00:46:49;;;;;;;2.20;2.00;;;14.30;39.50;;;-142.21;41.58;112049.66;5074457;28;20455;-76
2022/04/20 00:49:17;;;;;;;6.40;2.20;;;14.40;39.00;;;-142.21;40.89;112049.66;5074911;28;20509;-78
2022/04/20 00:51:57;;;;;;;2.67;2.10;;;14.40;39.10;;;-142.21;40.63;112049.66;5069893;28;20530;-76
2022/04/20 00:54:26;;;;;;;2.20;2.00;;;14.30;39.50;;;-142.21;42.12;112049.66;5075473;28;20878;-76
2022/04/20 00:56:54;;;;;;;2.20;2.00;;;14.30;39.40;;;-142.21;40.05;112049.66;5073665;28;20526;-78
2022/04/20 00:59:26;;;;;;;2.37;2.07;;;14.30;39.40;;;-142.21;42.29;112049.66;5074553;28;20526;-78
2022/04/20 01:01:54;;;;;;;2.20;2.00;;;14.30;39.70;;;-142.21;41.47;112049.66;5056277;28;20527;-74
2022/04/20 01:04:22;;;;;;;3.07;2.23;;;14.20;39.90;;;-142.21;41.67;112049.66;5075056;28;20534;-78
2022/04/20 01:06:50;;;;;;;2.10;1.90;;;14.10;39.30;;;-142.21;41.32;112049.66;5074655;28;20479;-77
2022/04/20 01:09:17;;;;;;;3.83;2.20;;;14.00;39.50;;;-142.21;41.74;112049.66;5074439;28;20463;-77
2022/04/20 01:11:47;;;;;;;3.30;2.23;;;14.00;39.40;;;-142.21;41.70;112049.66;5074685;28;20529;-77
2022/04/20 01:14:14;;;;;;;2.10;1.90;;;13.90;39.70;;;-142.21;41.49;112049.66;5074061;28;20451;-77
2022/04/20 01:16:41;;;;;;;2.03;1.70;;;13.90;39.40;;;-142.21;41.92;112049.66;5074835;28;20475;-78
2022/04/20 01:19:08;;;;;;;1.97;1.80;;;13.80;39.80;;;-142.21;41.14;112049.66;5073791;28;20452;-76
2022/04/20 01:21:37;;;;;;;2.90;1.87;;;13.80;39.70;;;-142.21;41.56;112049.66;5074831;28;20943;-77
2022/04/20 01:24:05;;;;;;;2.13;1.97;;;13.90;39.30;;;-142.21;41.14;112049.66;5073174;28;20956;-78
2022/04/20 01:26:35;;;;;;;2.33;2.13;;;13.90;39.60;;;-142.21;42.74;112049.66;5074694;28;20570;-78
2022/04/20 01:29:04;;;;;;;2.17;1.97;;;13.90;39.80;;;-142.21;42.05;112049.66;5074382;28;20925;-77
2022/04/20 01:31:31;;;;;;;2.33;2.13;;;13.90;40.10;;;-142.21;41.19;112049.66;5076638;28;20447;-76
2022/04/20 01:33:58;;;;;;;3.03;2.00;;;13.90;39.30;;;-142.21;41.89;112049.66;5075804;28;20443;-77
2022/04/20 01:36:26;;;;;;;2.03;1.83;;;14.00;39.40;;;-142.21;42.67;112049.66;5062213;28;20444;-77
2022/04/20 01:38:54;;;;;;;2.13;1.87;;;14.00;39.30;;;-142.21;41.94;112049.66;5074694;28;20967;-77
2022/04/20 01:41:22;;;;;;;3.37;2.10;;;14.10;39.50;;;-142.21;43.58;112049.66;5066554;28;20447;-77
2022/04/20 01:43:49;;;;;;;2.60;1.90;;;13.90;39.80;;;-142.21;42.17;112049.66;5074907;28;20526;-78
2022/04/20 01:46:16;;;;;;;2.37;1.90;;;13.90;40.40;;;-142.21;42.22;112049.66;5074460;28;20552;-78
2022/04/20 01:48:43;;;;;;;2.07;1.87;;;13.90;39.70;;;-142.21;41.95;112049.66;5074138;28;20548;-79
2022/04/20 01:53:56;;;;;;;3.20;2.23;;;13.80;40.00;;;-142.21;43.07;112049.66;5074770;28;20497;-76
2022/04/20 01:56:24;;;;;;;2.43;2.20;;;13.70;40.20;;;-142.21;42.36;112049.66;5074027;28;20440;-76
2022/04/20 01:58:51;;;;;;;2.40;2.20;;;13.70;39.70;;;-142.21;42.25;112049.66;5074130;28;20543;-78
2022/04/20 02:04:02;;;;;;;3.87;2.20;;;13.70;40.40;;;-142.21;43.13;112049.66;5052342;28;20757;-77
2022/04/20 02:06:29;;;;;;;5.60;2.50;;;13.60;39.90;;;-142.21;42.22;112049.66;5073422;28;20832;-77
2022/04/20 02:08:58;;;;;;;3.57;2.43;;;13.50;41.00;;;-142.21;43.40;112049.66;5072227;28;20526;-77
2022/04/20 02:11:26;;;;;;;2.93;2.30;;;13.50;40.70;;;-142.21;43.24;112049.66;5073213;28;20501;-78
2022/04/20 02:13:53;;;;;;;3.63;2.33;;;13.40;40.70;;;-142.21;44.49;112049.66;5073874;28;20447;-77
2022/04/20 02:16:20;;;;;;;2.47;2.17;;;13.40;40.70;;;-142.21;43.30;112049.66;5073832;28;20841;-78
2022/04/20 02:18:47;;;;;;;2.83;2.20;;;13.40;40.60;;;-142.21;45.04;112049.66;5072592;28;20932;-77
2022/04/20 02:21:14;;;;;;;2.60;2.40;;;13.40;41.40;;;-142.21;44.37;112049.66;5073760;28;20483;-79
2022/04/20 02:23:42;;;;;;;2.60;2.30;;;13.50;41.50;;;-142.21;45.10;112049.66;5072591;28;20514;-78
2022/04/20 02:26:10;;;;;;;3.63;2.50;;;13.40;41.20;;;-142.21;43.86;112049.66;5073676;28;20896;-77
2022/04/20 02:28:37;;;;;;;2.33;2.10;;;13.40;41.80;;;-142.21;45.35;112049.66;5072505;28;20491;-78
2022/04/20 02:31:05;;;;;;;2.70;2.27;;;13.40;41.90;;;-142.21;46.13;112049.66;5073099;28;20531;-77
2022/04/20 02:33:32;;;;;;;3.83;2.33;;;13.40;41.70;;;-142.21;45.63;112049.66;5073342;28;20498;-78
2022/04/20 02:35:59;;;;;;;2.73;2.30;;;13.40;42.30;;;-142.21;45.62;112049.66;5072546;28;20566;-78
2022/04/20 02:38:27;;;;;;;4.10;2.87;;;13.40;41.80;;;-142.21;44.46;112049.66;5073279;28;20522;-77
2022/04/20 02:40:54;;;;;;;4.10;2.93;;;13.40;41.90;;;-142.21;45.77;112049.66;5072367;28;20455;-79
2022/04/20 02:43:23;;;;;;;3.07;2.60;;;13.30;42.10;;;-142.21;46.64;112049.66;5072726;28;21003;-79
2022/04/20 02:45:50;;;;;;;3.10;2.60;;;13.30;42.10;;;-142.21;46.63;112049.66;5052911;28;20527;-78
2022/04/20 02:48:17;;;;;;;2.77;2.43;;;13.40;41.90;;;-142.21;46.59;112049.66;5073225;28;20454;-77
2022/04/20 02:50:45;;;;;;;3.57;2.43;;;13.40;41.90;;;-142.21;47.30;112049.66;5073266;28;20448;-79
2022/04/20 02:53:13;;;;;;;2.53;2.33;;;13.30;42.20;;;-142.21;46.17;112049.66;5072664;28;20907;-79
2022/04/20 02:55:42;;;;;;;2.90;2.50;;;13.20;43.10;;;-142.21;47.87;112049.66;5072649;28;20540;-77
2022/04/20 02:58:09;;;;;;;3.10;2.60;;;13.10;42.70;;;-142.21;46.61;112049.66;5071918;28;20993;-77
2022/04/20 03:00:38;;;;;;;2.60;2.40;;;13.00;42.90;;;-142.21;49.26;112049.66;5072824;28;20867;-77
2022/04/20 03:03:05;;;;;;;3.00;2.80;;;13.10;43.30;;;-142.21;49.00;112049.66;5072496;28;20448;-78
2022/04/20 03:05:33;;;;;;;3.23;2.83;;;13.10;43.20;;;-142.21;49.11;112049.66;5072507;28;20543;-77
2022/04/20 03:08:00;;;;;;;4.07;2.57;;;13.10;43.20;;;-142.21;49.37;112049.66;5072326;28;20479;-74
2022/04/20 03:10:27;;;;;;;3.30;2.87;;;13.10;43.60;;;-142.21;48.60;112049.66;5072498;28;20920;-76
2022/04/20 03:12:54;;;;;;;3.50;2.67;;;13.10;43.00;;;-142.21;49.93;112049.66;5073061;28;20817;-76
2022/04/20 03:15:22;;;;;;;3.50;2.90;;;13.10;44.20;;;-142.21;48.46;112049.66;5071859;28;20555;-76
2022/04/20 03:17:50;;;;;;;3.30;2.57;;;13.00;43.40;;;-142.21;49.88;112049.66;5073149;28;20531;-76
2022/04/20 03:20:18;;;;;;;3.60;2.73;;;13.00;43.70;;;-142.21;51.33;112049.66;5071342;28;20523;-76
2022/04/20 03:22:46;;;;;;;3.83;2.70;;;13.00;44.10;;;-142.21;49.46;112049.66;5072716;28;20443;-77
2022/04/20 03:25:13;;;;;;;3.67;2.63;;;13.00;44.10;;;-142.21;51.34;112049.66;5072370;28;20451;-77
2022/04/20 03:27:41;;;;;;;3.10;2.60;;;13.00;44.20;;;-142.21;52.56;112049.66;5071772;28;20446;-78
2022/04/20 03:30:10;;;;;;;2.80;2.57;;;12.90;44.30;;;-142.21;50.40;112049.66;5065948;28;20801;-78
2022/04/20 03:32:37;;;;;;;3.57;2.60;;;12.90;44.70;;;-142.21;50.14;112049.66;5070655;28;20469;-77
2022/04/20 03:35:08;;;;;;;2.67;2.47;;;12.90;43.60;;;-142.21;51.42;112049.66;5072835;28;20530;-77
2022/04/20 03:37:35;;;;;;;2.80;2.60;;;13.00;43.80;;;-142.21;51.48;112049.66;5072457;28;20471;-77
2022/04/20 03:40:02;;;;;;;3.20;2.70;;;13.00;43.90;;;-142.21;53.74;112049.66;5072616;28;20491;-78
2022/04/20 03:42:29;;;;;;;3.20;2.57;;;12.80;44.10;;;-142.21;52.90;112049.66;5072255;28;20444;-78
2022/04/20 03:44:57;;;;;;;5.57;2.87;;;12.80;44.00;;;-142.21;53.20;112049.66;5072164;28;20538;-78
2022/04/20 03:47:24;;;;;;;3.40;2.70;;;12.90;44.20;;;-142.21;51.77;112049.66;5072700;28;20440;-77
2022/04/20 03:49:51;;;;;;;3.20;2.83;;;12.90;44.20;;;-142.21;54.94;112049.66;5072588;28;20447;-77
2022/04/20 03:52:22;;;;;;;5.33;2.97;;;12.90;44.10;;;-142.21;54.45;112049.66;5072196;28;20439;-77
2022/04/20 03:54:49;;;;;;;3.10;2.80;;;12.80;44.40;;;-142.21;56.59;112049.66;5071816;28;20522;-77
2022/04/20 03:57:16;;;;;;;4.33;2.90;;;12.80;44.60;;;-142.21;55.90;112049.66;5072223;28;20523;-77
2022/04/20 03:59:44;;;;;;;5.40;2.73;;;12.70;44.30;;;-142.21;56.50;112049.66;5071181;28;20517;-77
2022/04/20 04:02:11;;;;;;;3.50;2.50;;;12.80;44.50;;;-142.21;57.61;112049.66;5072437;28;20523;-78
2022/04/20 04:04:38;;;;;;;3.60;2.60;;;12.80;44.70;;;-142.21;56.29;112049.66;5071620;28;20567;-77
2022/04/20 04:07:06;;;;;;;3.60;2.80;;;12.70;44.50;;;-142.21;57.01;112049.66;5071740;28;20935;-77
2022/04/20 04:09:34;;;;;;;3.73;2.47;;;12.60;44.40;;;-142.21;57.86;112049.66;5072024;28;20487;-78
2022/04/20 04:12:01;;;;;;;3.23;2.57;;;12.50;44.80;;;-142.21;60.58;112049.66;5071160;28;20485;-77
2022/04/20 04:14:28;;;;;;;4.10;2.73;;;12.50;45.10;;;-142.21;59.87;112049.66;5071864;28;20490;-77
2022/04/20 04:16:56;;;;;;;3.00;2.70;;;12.40;44.80;;;-142.21;63.83;112049.66;5071668;28;20875;-78
2022/04/20 04:19:24;;;;;;;4.13;2.70;;;12.40;45.80;;;-142.21;65.04;112049.66;5071874;28;20479;-78
2022/04/20 04:21:52;;;;;;;4.57;2.90;;;12.40;46.00;;;-142.21;65.50;112049.66;5071654;28;20446;-78
2022/04/20 04:24:37;;;;;;;4.23;3.07;;;12.50;46.70;;;-142.21;70.23;112049.66;5071631;28;20923;-78
2022/04/20 04:27:07;;;;;;;3.10;2.73;;;12.40;47.40;;;-142.21;69.95;112049.66;5071588;28;20746;-78
2022/04/20 04:29:35;;;;;;;9.03;3.80;;;12.40;47.20;;;-142.21;75.27;112049.66;5071259;28;20479;-77
2022/04/20 04:32:02;;;;;;;7.70;3.23;;;12.30;47.70;;;-142.21;77.32;112049.66;5072181;28;20439;-77
2022/04/20 04:34:30;;;;;;;3.53;2.90;;;12.40;48.30;;;-142.21;75.19;112049.66;5075832;28;20530;-76
2022/04/20 04:36:57;;;;;;;4.53;3.10;;;12.20;48.40;;;-142.21;75.74;112049.66;5075105;28;20481;-78
2022/04/20 04:39:28;;;;;;;4.20;2.53;;;12.00;48.20;;;-142.21;69.79;112049.66;5075452;28;20487;-78
2022/04/20 04:42:00;;;;;;;10.97;4.17;;;11.90;47.40;;;-142.21;83.21;112049.66;5075212;28;20415;-78
2022/04/20 04:44:32;;;;;;;12.87;5.10;;;11.90;49.40;;;-142.21;77.59;112049.66;5075939;28;20443;-79
2022/04/20 04:49:43;;;;;;;3.17;2.80;;;12.10;49.70;;;-142.21;78.51;112049.66;5075022;28;20435;-77
2022/04/20 04:52:12;;;;;;;2.90;2.70;;;12.10;48.60;;;-142.21;70.54;112049.66;5073440;28;20447;-75
2022/04/20 04:54:40;;;;;;;5.63;2.93;;;11.90;47.60;;;-142.21;79.63;112049.66;5055379;28;20444;-76
2022/04/20 04:57:08;;;;;;;4.43;2.70;;;11.80;48.80;;;-142.21;70.63;112049.66;5095174;28;20473;-77
2022/04/20 04:59:38;;;;;;;3.10;2.80;;;11.90;47.70;;;-142.21;74.80;112049.66;5090260;28;20443;-77
2022/04/20 05:02:09;;;;;;;3.40;3.10;;;12.00;48.10;;;-142.21;79.99;112049.66;5075076;28;20454;-78
2022/04/20 05:04:37;;;;;;;3.30;2.87;;;11.90;49.60;;;-142.21;77.58;112049.66;5074917;28;20993;-79
2022/04/20 05:07:05;;;;;;;3.33;3.03;;;11.90;47.90;;;-142.21;78.31;112049.66;5075132;28;20551;-77
2022/04/20 05:09:32;;;;;;;3.97;3.07;;;11.80;49.30;;;-142.21;75.17;112049.66;5059675;28;20455;-76
2022/04/20 05:12:01;;;;;;;4.60;3.00;;;11.80;48.50;;;-142.21;71.55;112049.66;5074622;28;20479;-76
2022/04/20 05:14:28;;;;;;;4.13;2.73;;;11.80;48.10;;;-142.21;74.82;112049.66;5074258;28;20979;-77
2022/04/20 05:16:59;;;;;;;3.37;2.93;;;11.80;48.20;;;-142.21;75.04;112049.66;5074815;28;20487;-77
2022/04/20 05:19:29;;;;;;;3.43;2.93;;;11.80;49.10;;;-142.21;68.01;112049.66;5074083;28;20467;-76
2022/04/20 05:21:56;;;;;;;5.67;2.70;;;11.80;48.70;;;-142.21;70.83;112049.66;5075025;28;20443;-76
2022/04/20 05:24:24;;;;;;;3.53;2.70;;;11.90;48.80;;;-142.21;72.72;112049.66;5074905;28;20455;-76
2022/04/20 05:26:52;;;;;;;3.20;2.90;;;11.90;49.20;;;-142.21;67.85;112049.66;5074783;28;20522;-77
2022/04/20 05:29:19;;;;;;;3.20;2.70;;;11.90;48.10;;;-142.21;68.55;112049.66;5073853;28;20517;-76
2022/04/20 05:31:52;;;;;;;3.53;2.97;;;11.90;48.00;;;-142.21;71.43;112049.66;5073435;28;20458;-75
2022/04/20 05:34:20;;;;;;;3.47;3.00;;;11.90;49.00;;;-142.21;64.10;112049.66;5062762;28;20535;-77
2022/04/20 05:42:18;;;;;;;3.30;3.00;;;12.00;47.90;;;-142.21;60.70;112049.66;5060250;28;20803;-77
2022/04/20 05:44:46;;;;;;;3.20;2.87;;;11.90;46.80;;;-142.21;72.94;112049.66;5073642;28;20938;-76
2022/04/20 05:47:13;;;;;;;4.73;2.60;;;12.00;48.90;;;-142.21;66.32;112049.66;5074389;28;20486;-79
2022/04/20 05:49:42;;;;;;;4.83;3.00;;;12.30;48.20;;;-142.21;61.09;112049.66;5073755;28;20538;-79
2022/04/20 05:52:09;;;;;;;4.13;3.00;;;12.30;47.60;;;-142.21;60.80;112049.66;5073971;28;20533;-78
2022/04/20 05:54:37;;;;;;;3.43;2.77;;;12.20;47.20;;;-142.21;65.61;112049.66;5074121;28;20443;-74
2022/04/20 05:57:05;;;;;;;3.40;3.10;;;12.30;47.50;;;-142.21;62.78;112049.66;5073426;28;20814;-75
2022/04/20 05:59:32;;;;;;;3.00;2.70;;;12.40;47.50;;;-142.21;62.74;112049.66;5068949;28;20447;-76
2022/04/20 06:01:59;;;;;;;3.33;2.57;;;12.40;47.00;;;-142.21;59.33;112049.66;5066644;28;20512;-76
2022/04/20 06:04:28;;;;;;;4.37;2.93;;;12.30;46.80;;;-142.21;58.87;112049.66;5072921;28;20971;-76
2022/04/20 06:06:58;;;;;;;3.83;3.27;;;12.60;47.00;;;-142.21;59.23;112049.66;5072582;28;20454;-75
2022/04/20 06:09:25;;;;;;;3.83;2.80;;;12.80;46.00;;;-142.21;63.72;112049.66;5073529;28;20538;-75
2022/04/20 06:11:53;;;;;;;3.30;2.77;;;12.90;46.80;;;-142.21;61.46;112049.66;5073556;28;20447;-75
2022/04/20 06:14:20;;;;;;;6.40;2.90;;;12.90;46.30;;;-142.21;63.50;112049.66;5073674;28;20452;-75
2022/04/20 06:16:47;;;;;;;4.03;3.10;;;13.00;47.50;;;-142.21;60.63;112049.66;5072715;28;20483;-74
2022/04/20 06:19:14;;;;;;;3.27;2.90;;;13.00;46.40;;;-142.21;67.13;112049.66;5072470;28;20448;-75
2022/04/20 06:21:42;;;;;;;3.23;2.90;;;13.20;46.30;;;-142.21;73.29;112049.66;5073165;28;20469;-76
2022/04/20 06:24:11;;;;;;;2.60;2.40;;;13.40;47.90;;;-142.21;59.32;112049.66;5072737;28;20447;-76
2022/04/20 06:26:38;;;;;;;8.10;2.93;;;13.30;45.40;;;-142.21;58.58;112049.66;5073651;28;20443;-75
2022/04/20 06:29:05;;;;;;;2.57;2.37;;;13.40;45.20;;;-142.21;57.28;112049.66;5072413;28;20837;-76
2022/04/20 06:31:33;;;;;;;3.13;2.60;;;13.30;44.90;;;-142.21;56.30;112049.66;5073138;28;20542;-76
2022/04/20 06:34:02;;;;;;;3.30;3.00;;;13.30;45.60;;;-142.21;54.97;112049.66;5073048;28;20963;-74
2022/04/20 06:36:29;;;;;;;3.60;3.13;;;13.20;45.70;;;-142.21;59.22;112049.66;5072561;28;20845;-76
2022/04/20 06:38:56;;;;;;;3.30;3.00;;;13.30;46.10;;;-142.21;56.34;112049.66;5072690;28;20452;-77
2022/04/20 06:41:26;;;;;;;3.27;2.77;;;13.40;46.10;;;-142.21;55.67;112049.66;5073020;28;20505;-76
2022/04/20 06:43:54;;;;;;;3.23;2.93;;;13.50;45.30;;;-142.21;54.23;112049.66;5073025;28;20535;-78
2022/04/20 06:46:21;;;;;;;4.10;3.20;;;13.60;45.20;;;-142.21;52.01;112049.66;5072773;28;20559;-75
2022/04/20 06:48:48;;;;;;;4.70;3.07;;;14.10;44.00;;;-142.21;52.28;112049.66;5073495;28;20448;-77
2022/04/20 06:51:15;;;;;;;3.33;3.00;;;14.80;43.10;;;-142.21;52.67;112049.66;5072796;28;20447;-75
2022/04/20 06:59:14;;;;;;;2.93;2.60;;;15.20;41.40;;;-142.21;51.02;112049.66;5072507;28;20439;-78
2022/04/20 07:01:41;;;;;;;3.00;2.50;;;15.20;42.30;;;-142.21;50.47;112049.66;5071846;28;20443;-77
2022/04/20 07:04:09;;;;;;;4.40;3.10;;;15.70;42.00;;;-142.21;53.85;112049.66;5072433;28;20448;-75
2022/04/20 07:06:36;;;;;;;3.80;2.80;;;16.40;42.50;;;-142.21;54.42;112049.66;5071746;28;20520;-74
2022/04/20 07:09:03;;;;;;;7.77;3.10;;;17.30;40.10;;;-142.21;49.52;112049.66;5061868;28;20842;-74
2022/04/20 07:11:32;;;;;;;3.00;2.70;;;16.50;39.10;;;-142.21;51.11;112049.66;5065174;28;20443;-74
2022/04/20 07:13:59;;;;;;;3.47;2.80;;;16.00;41.60;;;-142.21;52.39;112049.66;5072138;28;20479;-75
2022/04/20 07:16:28;;;;;;;3.37;3.03;;;15.70;42.10;;;-142.21;50.48;112049.66;5071554;28;20447;-76
2022/04/20 07:18:55;;;;;;;3.13;2.70;;;15.40;43.10;;;-142.21;51.13;112049.66;5070917;28;20490;-76
2022/04/20 07:21:22;;;;;;;3.20;2.83;;;15.30;42.80;;;-142.21;49.44;112049.66;5067931;28;20466;-77
2022/04/20 07:23:50;;;;;;;3.37;2.93;;;15.20;42.40;;;-142.21;51.26;112049.66;5067824;28;20471;-74
2022/04/20 07:26:17;;;;;;;2.80;2.60;;;15.40;43.50;;;-142.21;47.24;112049.66;5066838;28;20441;-76
2022/04/20 07:28:46;;;;;;;2.97;2.73;;;15.20;41.80;;;-142.21;48.28;112049.66;5051491;28;20476;-75
2022/04/20 07:31:14;;;;;;;3.93;2.83;;;15.40;42.00;;;-142.21;51.66;112049.66;5071222;28;21017;-74
2022/04/20 07:33:41;;;;;;;3.17;2.87;;;15.50;43.00;;;-142.21;47.27;112049.66;5071013;28;20988;-75
2022/04/20 07:36:08;;;;;;;4.30;2.53;;;15.50;41.60;;;-142.21;46.91;112049.66;5066868;28;20543;-75
2022/04/20 07:38:35;;;;;;;2.70;2.50;;;15.60;41.90;;;-142.21;49.20;112049.66;5072099;28;20491;-76
2022/04/20 07:41:02;;;;;;;4.77;2.87;;;15.80;42.70;;;-142.21;47.85;112049.66;5071970;28;20447;-74
2022/04/20 07:43:31;;;;;;;2.90;2.60;;;16.10;41.60;;;-142.21;47.89;112049.66;5070928;28;20443;-76
2022/04/20 07:46:00;;;;;;;3.87;2.63;;;16.30;42.50;;;-142.21;46.53;112049.66;5070076;28;20456;-76
2022/04/20 07:48:27;;;;;;;3.13;2.60;;;16.40;39.90;;;-142.21;47.44;112049.66;5071410;28;20533;-76
2022/04/20 07:50:55;;;;;;;3.30;2.50;;;16.30;40.90;;;-142.21;46.50;112049.66;5071339;28;20455;-74
2022/04/20 07:53:22;;;;;;;3.13;2.70;;;16.40;41.20;;;-142.21;46.31;112049.66;5071870;28;20452;-76
2022/04/20 07:55:49;;;;;;;3.47;2.30;;;16.40;41.10;;;-142.21;47.39;112049.66;5071828;28;20935;-76
2022/04/20 07:58:17;;;;;;;2.53;2.33;;;17.90;40.00;;;-142.21;47.90;112049.66;5071396;28;21066;-76
2022/04/20 08:00:45;;;;;;;2.70;2.50;;;17.70;38.50;;;-142.21;44.66;112049.66;5066733;28;20522;-77
2022/04/20 08:03:16;;;;;;;2.70;2.43;;;17.40;38.80;;;-142.21;46.50;112049.66;5071571;28;20447;-75
2022/04/20 08:05:49;;;;;;;3.13;2.73;;;17.00;40.10;;;-142.21;43.28;112049.66;5070783;28;20487;-77
2022/04/20 08:08:17;;;;;;;2.93;2.30;;;16.70;39.10;;;-142.21;43.35;112049.66;5063036;28;20517;-78
2022/04/20 08:10:44;;;;;;;3.20;2.53;;;16.50;39.20;;;-142.21;44.49;112049.66;5074618;28;20458;-77
2022/04/20 08:16:00;;;;;;;3.17;2.60;;;16.30;41.20;;;-142.21;43.58;112049.66;5075244;28;20931;-77
2022/04/20 08:18:29;;;;;;;3.63;2.63;;;16.20;40.30;;;-142.21;42.32;112049.66;5068613;28;20767;-76
2022/04/20 08:20:56;;;;;;;4.80;2.80;;;16.10;40.30;;;-142.21;43.47;112049.66;5061824;28;20446;-76
2022/04/20 08:23:26;;;;;;;3.57;2.47;;;16.10;41.00;;;-142.21;43.13;112049.66;5064018;28;20440;-76
2022/04/20 08:25:54;;;;;;;3.33;2.47;;;16.30;40.30;;;-142.21;42.80;112049.66;5075026;28;20442;-77
2022/04/20 08:28:21;;;;;;;3.23;2.60;;;16.50;40.00;;;-142.21;41.16;112049.66;5075232;28;20554;-78
2022/04/20 08:30:50;;;;;;;2.60;2.40;;;16.40;38.60;;;-142.21;40.85;112049.66;5072850;28;20558;-75
2022/04/20 08:33:17;;;;;;;2.33;2.07;;;16.40;39.40;;;-142.21;38.55;112049.66;5075055;28;20961;-76
2022/04/20 08:35:47;;;;;;;2.63;2.10;;;16.40;37.70;;;-142.21;38.39;112049.66;5075499;28;20529;-78
2022/04/20 08:38:15;;;;;;;2.63;2.30;;;16.30;37.80;;;-142.21;40.60;112049.66;5075932;28;20831;-76
2022/04/20 08:40:43;;;;;;;2.77;2.20;;;16.30;38.80;;;-142.21;37.46;112049.66;5075918;28;20459;-77
2022/04/20 08:43:13;;;;;;;2.83;2.60;;;16.20;37.40;;;-142.21;38.36;112049.66;5072674;28;20539;-75
2022/04/20 08:45:41;;;;;;;2.93;2.53;;;16.40;38.10;;;-142.21;36.97;112049.66;5073085;28;20498;-76
2022/04/20 08:48:09;;;;;;;4.03;2.33;;;16.50;37.00;;;-142.21;37.54;112049.66;5074685;28;20443;-76
2022/04/20 08:50:38;;;;;;;3.70;2.60;;;16.60;37.40;;;-142.21;37.40;112049.66;5074579;28;20439;-75
2022/04/20 08:53:08;;;;;;;2.53;2.33;;;16.80;37.20;;;-142.21;38.33;112049.66;5086804;28;20451;-78
2022/04/20 08:55:35;;;;;;;5.03;2.70;;;17.00;37.70;;;-142.21;36.87;112049.66;5090539;28;20454;-77
2022/04/20 08:58:05;;;;;;;3.73;2.87;;;17.00;37.30;;;-142.21;36.68;112049.66;5074538;28;20557;-76
2022/04/20 09:00:34;;;;;;;2.83;2.53;;;17.20;38.20;;;-142.21;34.97;112049.66;5074659;28;20431;-76
2022/04/20 09:03:03;;;;;;;3.90;2.90;;;17.70;37.70;;;-142.21;32.86;112049.66;5074846;28;20440;-76
2022/04/20 09:05:34;;;;;;;4.07;2.43;;;18.30;36.20;;;-142.21;34.57;112049.66;5074583;28;20475;-76
2022/04/20 09:08:10;;;;;;;3.53;2.33;;;19.80;36.40;;;-142.21;30.20;112049.66;5074860;28;20439;-77
2022/04/20 09:10:38;;;;;;;3.03;2.30;;;23.00;30.50;;;-142.21;28.96;112049.66;5074478;28;20557;-76
2022/04/20 09:13:08;;;;;;;2.97;2.57;;;25.40;30.60;;;-142.21;28.41;112049.66;5074214;28;20204;-75
2022/04/20 09:15:37;;;;;;;3.70;2.40;;;27.80;28.20;;;-142.21;28.66;112049.66;5074810;28;20236;-76
2022/04/20 09:18:07;;;;;;;4.10;2.30;;;29.30;25.30;;;-142.21;30.40;112049.66;5073866;28;20321;-77
2022/04/20 09:20:35;;;;;;;2.57;2.37;;;30.50;25.60;;;-142.21;31.67;112049.66;5071863;28;20291;-78
2022/04/20 09:23:07;;;;;;;4.17;2.63;;;31.50;25.00;;;-142.21;31.17;112049.66;5071973;28;20611;-76
2022/04/20 09:25:36;;;;;;;3.47;2.53;;;31.10;23.60;;;-142.21;31.80;112049.66;5074432;28;20269;-76
2022/04/20 09:28:05;;;;;;;3.97;2.50;;;29.00;24.70;;;-142.21;33.71;112049.66;5072418;28;20202;-78
2022/04/20 09:30:38;;;;;;;2.40;2.20;;;27.10;26.00;;;-142.21;31.78;112049.66;5073784;28;20217;-76
2022/04/20 09:33:07;;;;;;;2.93;2.23;;;25.60;26.80;;;-142.21;32.85;112049.66;5072212;28;20220;-73
2022/04/20 09:35:43;;;;;;;2.73;2.50;;;24.70;28.10;;;-142.21;32.88;112049.66;5074280;28;20695;-79
2022/04/20 09:38:19;;;;;;;3.13;2.20;;;23.70;28.40;;;-142.21;33.01;112049.66;5072964;28;20303;-78
2022/04/20 09:40:48;;;;;;;7.70;2.10;;;22.90;29.70;;;-142.21;32.87;112049.66;5074802;28;20281;-78
2022/04/20 09:43:19;;;;;;;2.93;2.63;;;22.30;29.80;;;-142.21;33.58;112049.66;5072209;28;20209;-77
2022/04/20 09:46:04;;;;;;;4.27;2.40;;;21.80;30.60;;;-142.21;33.96;112049.66;5074225;28;20236;-76
2022/04/20 09:51:20;;;;;;;2.87;2.50;;;21.30;32.10;;;-142.21;32.92;112049.66;5073649;28;20255;-79
2022/04/20 09:53:50;;;;;;;5.33;2.53;;;21.30;32.30;;;-142.21;32.52;112049.66;5074097;28;20221;-79
2022/04/20 09:56:24;;;;;;;3.03;2.57;;;20.70;30.80;;;-142.21;31.81;112049.66;5073771;28;20229;-78
2022/04/20 09:59:00;;;;;;;2.90;2.60;;;20.50;31.40;;;-142.21;32.17;112049.66;5073658;28;20259;-78
2022/04/20 10:01:31;;;;;;;2.87;2.40;;;20.40;31.00;;;-142.21;33.26;112049.66;5073684;28;20193;-77
2022/04/20 10:03:59;;;;;;;3.20;2.83;;;20.60;33.40;;;-142.21;31.52;112049.66;5072650;28;20212;-76
2022/04/20 10:06:27;;;;;;;2.60;2.23;;;20.60;31.60;;;-142.21;31.75;112049.66;5072883;28;20313;-76
2022/04/20 10:08:56;;;;;;;3.00;2.53;;;20.80;32.50;;;-142.21;30.62;112049.66;5048074;28;20193;-74
2022/04/20 10:11:25;;;;;;;2.80;2.30;;;20.70;30.60;;;-142.21;30.65;112049.66;5060244;28;20237;-78
2022/04/20 10:16:41;;;;;;;3.43;2.57;;;20.60;30.10;;;-142.21;29.86;112049.66;5072213;28;20587;-75
2022/04/20 10:19:13;;;;;;;3.07;2.60;;;20.60;30.20;;;-142.21;30.88;112049.66;5059132;28;20228;-75
2022/04/20 10:21:50;;;;;;;2.70;2.50;;;20.60;31.30;;;-142.21;31.86;112049.66;5058294;28;20193;-75
2022/04/20 10:24:26;;;;;;;2.93;2.63;;;20.70;31.50;;;-142.21;30.53;112049.66;5068678;28;20281;-76
2022/04/20 10:26:57;;;;;;;3.87;2.80;;;20.70;30.20;;;-142.21;31.56;112049.66;5053288;28;20278;-76
2022/04/20 10:29:36;;;;;;;2.90;2.40;;;20.70;31.10;;;-142.21;31.23;112049.66;5052188;28;20238;-76
2022/04/20 10:32:11;;;;;;;2.90;2.60;;;20.90;32.40;;;-142.21;30.84;112049.66;5067893;28;20528;-76